M I D A S
Marine Information and Data Acquisition System
Tripno 1430 of the Zeeleeuw from 2008-02-27 07:35:08 to 2008-02-27 15:52:09
Back to CruiseResearch ActivitiesStationsMapUnderway DataData graphs

EquipmentUnitsComment
TimeDGPSUTC
LatitudeDGPSDM.mWGS84
LongitudeDGPSDM.mWGS84
HeadingGyrodeg 
SOGDGPSknotsSpeed over ground
COGDGPSdegCourse over ground
DepthEcho soundermeters200 kHz
Missing or incorrect values are displayed as -999
Navigation data collected by the RV Zeeleeuw from 2008-02-27 07:37:18 to 2008-02-27 16:00:25
Time Latitude Longitude Heading SOG COG Depth
2008-02-27 07:38:23 51°13.677 2°55.876 104.5 4.2 286 -999
2008-02-27 07:39:23 51°13.69 2°55.764 93 3.4 275 -999
2008-02-27 07:40:23 51°13.693 2°55.733 58 0.8 35 12.5
2008-02-27 07:41:22 51°13.723 2°55.742 356.3 2.8 348 13.2
2008-02-27 07:42:22 51°13.808 2°55.66 327.2 7.8 328 10.8
2008-02-27 07:43:21 51°13.933 2°55.558 336.6 8.7 336 11.8
2008-02-27 07:44:20 51°14.031 2°55.486 333.8 5.5 333 11.9
2008-02-27 07:45:20 51°14.119 2°55.418 334.1 7.4 334 11.5
2008-02-27 07:46:20 51°14.252 2°55.275 319 10.9 317 11.5
2008-02-27 07:47:20 51°14.376 2°55.038 305.9 12 305 11.2
2008-02-27 07:48:19 51°14.479 2°54.76 301.8 12.6 298 11.2
2008-02-27 07:49:19 51°14.581 2°54.468 301.9 12.6 299 11
2008-02-27 07:50:19 51°14.665 2°54.164 290.2 12.7 288 11.4
2008-02-27 07:51:20 51°14.72 2°53.833 285.6 12.7 283 11
2008-02-27 07:52:19 51°14.754 2°53.508 280.1 12.7 279 10.7
2008-02-27 07:53:20 51°14.749 2°53.171 267.7 12.6 266 9.8
2008-02-27 07:54:20 51°14.736 2°52.837 268.2 12.6 265 9.9
2008-02-27 07:55:20 51°14.688 2°52.509 257.6 12.7 256 9.9
2008-02-27 07:56:20 51°14.635 2°52.179 255.1 12.9 254 10.1
2008-02-27 07:57:20 51°14.576 2°51.854 256.1 12.9 254 10.2
2008-02-27 07:58:20 51°14.524 2°51.525 258.3 12.7 259 10.2
2008-02-27 07:59:20 51°14.477 2°51.195 259.4 12.8 258 10.2
2008-02-27 08:00:20 51°14.432 2°50.861 258.8 12.8 258 10
2008-02-27 08:01:20 51°14.385 2°50.527 258.9 12.9 257 10.3
2008-02-27 08:02:20 51°14.339 2°50.193 259.4 12.9 258 10.6
2008-02-27 08:03:20 51°14.293 2°49.857 259.6 13.1 258 11.1
2008-02-27 08:04:20 51°14.245 2°49.526 259 12.8 257 11.3
2008-02-27 08:05:20 51°14.199 2°49.193 259.7 13 257 11.6
2008-02-27 08:06:20 51°14.145 2°48.861 252.7 12.8 251 11.7
2008-02-27 08:07:20 51°14.03 2°48.574 234.3 12.9 234 11.4
2008-02-27 08:08:20 51°13.9 2°48.3 234.3 12.8 234 11.5
2008-02-27 08:09:20 51°13.771 2°48.023 232.2 13.2 235 11.6
2008-02-27 08:10:20 51°13.643 2°47.746 233.8 13 232 11.4
2008-02-27 08:11:20 51°13.517 2°47.467 234.2 13 236 11.4
2008-02-27 08:12:20 51°13.389 2°47.188 234.8 13.2 233 11.1
2008-02-27 08:13:20 51°13.262 2°46.907 234.3 13.1 234 11
2008-02-27 08:14:20 51°13.135 2°46.626 233.8 13 235 10.8
2008-02-27 08:15:20 51°13.008 2°46.345 233.8 13.1 233 10.8
2008-02-27 08:16:20 51°12.883 2°46.063 233.7 13.1 235 10.1
2008-02-27 08:17:20 51°12.766 2°45.773 241.2 13 241 9.6
2008-02-27 08:18:20 51°12.664 2°45.47 241 13 241 8.2
2008-02-27 08:19:20 51°12.58 2°45.156 248.1 12.8 248 8.5
2008-02-27 08:20:20 51°12.497 2°44.84 246 12.9 249 8.5
2008-02-27 08:21:20 51°12.412 2°44.525 246.5 13 247 9
2008-02-27 08:22:20 51°12.328 2°44.21 247.1 12.9 246 9.5
2008-02-27 08:23:20 51°12.24 2°43.898 244 12.9 244 9.3
2008-02-27 08:24:20 51°12.147 2°43.59 244.5 12.9 245 9
2008-02-27 08:25:20 51°12.054 2°43.281 243.6 12.8 245 9.5
2008-02-27 08:26:20 51°11.953 2°42.981 236.7 12.9 240 9.9
2008-02-27 08:27:20 51°11.839 2°42.692 235.9 12.9 237 9.9
2008-02-27 08:28:20 51°11.726 2°42.404 238.2 12.9 238 9.9
2008-02-27 08:29:20 51°11.605 2°42.121 230.9 13 234 10.1
2008-02-27 08:30:20 51°11.476 2°41.844 231.4 13 231 11
2008-02-27 08:31:20 51°11.349 2°41.565 232.9 13 235 11.5
2008-02-27 08:32:20 51°11.221 2°41.284 232.2 13 234 11.9
2008-02-27 08:33:20 51°11.093 2°41.002 232.7 13.2 235 12.4
2008-02-27 08:34:20 51°10.965 2°40.718 232.4 13.3 236 12.8
2008-02-27 08:35:20 51°10.836 2°40.434 232.9 13.4 238 13.3
2008-02-27 08:36:20 51°10.706 2°40.149 232.2 13.2 234 13.4
2008-02-27 08:37:20 51°10.577 2°39.866 231.5 13.2 233 14.2
2008-02-27 08:38:20 51°10.45 2°39.578 235.6 13.3 238 14.4
2008-02-27 08:39:20 51°10.335 2°39.276 236.7 13.3 238 14.7
2008-02-27 08:40:20 51°10.221 2°38.973 237.5 13.3 240 14.8
2008-02-27 08:41:20 51°10.119 2°38.675 241.3 10.2 242 14.9
2008-02-27 08:42:20 51°10.067 2°38.512 245.2 5.1 243 15.3
2008-02-27 08:43:20 51°10.034 2°38.422 242.5 3.3 237 15.5
2008-02-27 08:44:20 51°10.007 2°38.362 239.6 2.4 234 15.3
2008-02-27 08:45:20 51°9.984 2°38.322 234.5 1.9 225 15.4
2008-02-27 08:46:20 51°9.963 2°38.289 231.5 1.7 220 15.4
2008-02-27 08:47:20 51°9.943 2°38.26 229.4 1.5 222 15.1
2008-02-27 08:48:20 51°9.924 2°38.234 227.8 1.5 221 15.2
2008-02-27 08:49:20 51°9.905 2°38.21 225.1 1.4 218 15
2008-02-27 08:50:20 51°9.885 2°38.189 216.8 1.4 217 15
2008-02-27 08:51:20 51°9.852 2°38.144 228.5 3.3 226 14.6
2008-02-27 08:52:20 51°9.819 2°38.072 245.9 3.8 241 14.9
2008-02-27 08:53:20 51°9.795 2°37.976 258.6 3.4 247 15
2008-02-27 08:54:20 51°9.775 2°37.898 259 3.7 250 15.1
2008-02-27 08:55:20 51°9.76 2°37.796 262.4 3.9 254 15.1
2008-02-27 08:56:20 51°9.743 2°37.7 262.7 3.6 252 15.2
2008-02-27 08:57:20 51°9.728 2°37.605 262.3 3.7 255 15.3
2008-02-27 08:58:20 51°9.711 2°37.51 262.3 3.7 255 15.8
2008-02-27 08:59:20 51°9.694 2°37.416 261.8 3.7 254 15.8
2008-02-27 09:00:20 51°9.677 2°37.321 262.5 3.8 253 15.9
2008-02-27 09:01:20 51°9.662 2°37.222 263.2 3.9 255 15.8
2008-02-27 09:02:20 51°9.642 2°37.128 258.5 3.4 248 15.6
2008-02-27 09:03:20 51°9.625 2°37.041 264.1 3.6 255 15.5
2008-02-27 09:04:20 51°9.608 2°36.947 262.2 3.7 253 15.4
2008-02-27 09:05:20 51°9.591 2°36.85 262.8 3.9 254 15.6
2008-02-27 09:06:20 51°9.574 2°36.753 264.2 3.8 256 15.5
2008-02-27 09:07:20 51°9.557 2°36.658 262 3.7 252 15.5
2008-02-27 09:08:20 51°9.54 2°36.564 262 3.6 252 15.7
2008-02-27 09:09:20 51°9.522 2°36.471 264 3.8 255 16.1
2008-02-27 09:10:20 51°9.505 2°36.375 261.9 3.7 254 16
2008-02-27 09:11:20 51°9.487 2°36.279 261.7 3.8 252 15.9
2008-02-27 09:12:20 51°9.468 2°36.184 260.8 3.7 252 15.4
2008-02-27 09:13:20 51°9.452 2°36.086 264.1 3.8 256 16
2008-02-27 09:14:20 51°9.434 2°35.986 260.9 3.9 255 16.1
2008-02-27 09:15:20 51°9.417 2°35.886 262.1 3.9 255 15.9
2008-02-27 09:16:20 51°9.4 2°35.785 262.6 3.8 256 16.1
2008-02-27 09:17:20 51°9.381 2°35.688 261.5 3.8 250 16.5
2008-02-27 09:18:20 51°9.363 2°35.594 263.3 3.8 254 16.6
2008-02-27 09:19:20 51°9.346 2°35.501 262.1 3.8 254 16.1
2008-02-27 09:20:20 51°9.329 2°35.409 262.7 3.7 253 16.5
2008-02-27 09:21:20 51°9.31 2°35.315 261.5 3.7 251 15.4
2008-02-27 09:22:20 51°9.294 2°35.219 263.3 3.8 255 16.2
2008-02-27 09:23:20 51°9.275 2°35.125 261.1 3.8 250 15.9
2008-02-27 09:24:20 51°9.257 2°35.031 263.1 3.6 252 16.7
2008-02-27 09:25:20 51°9.241 2°34.941 270.7 3.4 258 16.7
2008-02-27 09:26:20 51°9.249 2°34.871 325.8 2.4 303 16.8
2008-02-27 09:27:20 51°9.267 2°34.846 4.2 0.9 325 16.2
2008-02-27 09:28:20 51°9.273 2°34.832 1.9 0.6 284 16.6
2008-02-27 09:29:20 51°9.272 2°34.82 359.2 0.5 245 16.4
2008-02-27 09:30:20 51°9.266 2°34.808 358.7 0.6 219 16.5
2008-02-27 09:31:20 51°9.258 2°34.798 1.4 0.7 212 16.6
2008-02-27 09:32:20 51°9.256 2°34.792 23.1 1 10 16.8
2008-02-27 09:33:20 51°9.315 2°34.822 25.1 6.3 20 16.7
2008-02-27 09:34:20 51°9.438 2°34.897 25.9 9.6 22 17.6
2008-02-27 09:35:20 51°9.61 2°35.004 25.2 11.5 20 18.7
2008-02-27 09:36:20 51°9.789 2°35.114 26.4 11.5 23 17.4
2008-02-27 09:37:20 51°9.967 2°35.229 26.6 11.5 23 12.5
2008-02-27 09:38:20 51°10.145 2°35.349 26.9 11.7 23 10.2
2008-02-27 09:39:20 51°10.324 2°35.47 26.7 11.7 20 10.5
2008-02-27 09:40:20 51°10.498 2°35.599 31.3 11.4 30 9.4
2008-02-27 09:41:20 51°10.662 2°35.752 33.6 11.4 32 9.7
2008-02-27 09:42:20 51°10.821 2°35.917 35.3 11.4 31 9.9
2008-02-27 09:43:20 51°10.981 2°36.084 36.7 11.4 32 10.3
2008-02-27 09:44:20 51°11.139 2°36.249 35 11.5 36 10.5
2008-02-27 09:45:20 51°11.299 2°36.413 36.2 11.4 33 10.2
2008-02-27 09:46:20 51°11.457 2°36.577 35 11.3 35 10.4
2008-02-27 09:47:20 51°11.617 2°36.741 35.5 11.4 35 10.5
2008-02-27 09:48:20 51°11.775 2°36.903 35.3 11.2 33 10.4
2008-02-27 09:49:20 51°11.933 2°37.07 36.2 11.3 35 10.5
2008-02-27 09:50:20 51°12.089 2°37.24 37.4 11.4 33 10.9
2008-02-27 09:51:20 51°12.247 2°37.409 36.2 11.3 34 10.7
2008-02-27 09:52:20 51°12.403 2°37.581 37.6 11.4 37 11.1
2008-02-27 09:53:20 51°12.559 2°37.752 37.5 11.5 35 11.6
2008-02-27 09:54:20 51°12.711 2°37.931 36.2 11.4 36 12
2008-02-27 09:55:20 51°12.864 2°38.111 36.9 11.4 36 12.6
2008-02-27 09:56:20 51°13.018 2°38.289 38.4 11.4 38 13.1
2008-02-27 09:57:20 51°13.171 2°38.467 38.3 11.4 36 13.2
2008-02-27 09:58:20 51°13.325 2°38.646 38.7 11.6 38 13.6
2008-02-27 09:59:20 51°13.481 2°38.82 38.3 11.4 35 13.3
2008-02-27 10:00:19 51°13.656 2°38.919 15 11.7 8 13.9
2008-02-27 10:01:20 51°13.844 2°39.005 26.5 11.6 23 13.5
2008-02-27 10:02:19 51°14.017 2°39.126 27.9 11.5 26 13.2
2008-02-27 10:03:19 51°14.193 2°39.248 27.5 11.5 22 12.4
2008-02-27 10:04:19 51°14.37 2°39.369 26.5 11.6 23 12.6
2008-02-27 10:05:19 51°14.547 2°39.493 27.4 11.6 24 14.1
2008-02-27 10:06:20 51°14.726 2°39.621 27.6 11.6 25 14.6
2008-02-27 10:07:19 51°14.898 2°39.744 27.4 11.6 26 13.8
2008-02-27 10:08:20 51°15.076 2°39.875 27.7 11.6 24 14.1
2008-02-27 10:09:19 51°15.248 2°40 26.8 11.7 27 14.9
2008-02-27 10:10:19 51°15.425 2°40.125 26.6 11.6 23 15.8
2008-02-27 10:11:19 51°15.597 2°40.258 29.7 11.5 27 16.5
2008-02-27 10:12:20 51°15.774 2°40.388 25.3 11.5 24 17.3
2008-02-27 10:13:19 51°15.945 2°40.513 26.4 11.5 22 17.9
2008-02-27 10:14:20 51°16.119 2°40.646 28.3 11.4 24 18.7
2008-02-27 10:15:20 51°16.293 2°40.776 27.9 11.4 28 18.9
2008-02-27 10:16:19 51°16.463 2°40.898 25 11.4 27 20.7
2008-02-27 10:17:19 51°16.636 2°41.025 27.3 11.4 28 21.2
2008-02-27 10:18:19 51°16.808 2°41.151 29.3 11.4 25 22.5
2008-02-27 10:19:20 51°16.983 2°41.274 27.7 11.2 24 22.8
2008-02-27 10:20:19 51°17.15 2°41.394 27.3 11.3 23 23.6
2008-02-27 10:21:20 51°17.322 2°41.519 26.8 11.1 25 23.4
2008-02-27 10:22:19 51°17.49 2°41.636 26.7 11.2 23 23.7
2008-02-27 10:23:19 51°17.661 2°41.755 26.1 11 23 23.7
2008-02-27 10:24:19 51°17.832 2°41.876 28 11.3 25 23.7
2008-02-27 10:25:19 51°18.003 2°41.995 27.7 11.1 23 23.9
2008-02-27 10:26:20 51°18.177 2°42.114 26.9 11.3 23 23.7
2008-02-27 10:27:19 51°18.336 2°42.252 41.5 10.9 42 23.2
2008-02-27 10:28:19 51°18.417 2°42.513 75 11.6 75 23.5
2008-02-27 10:29:19 51°18.46 2°42.805 74 11.2 77 23.3
2008-02-27 10:30:19 51°18.501 2°43.097 78.7 11.2 84 23.1
2008-02-27 10:31:20 51°18.549 2°43.39 71.7 11.3 75 22.7
2008-02-27 10:32:20 51°18.594 2°43.679 73.8 11.4 82 22.4
2008-02-27 10:33:20 51°18.646 2°43.965 73.2 11.2 72 19
2008-02-27 10:34:19 51°18.692 2°44.247 75.9 11.3 74 13.1
2008-02-27 10:35:19 51°18.735 2°44.529 75.4 10.6 81 9.8
2008-02-27 10:36:19 51°18.772 2°44.81 76.8 10.7 75 11.1
2008-02-27 10:37:19 51°18.815 2°45.089 73.5 10.9 71 14.5
2008-02-27 10:38:20 51°18.856 2°45.377 72.9 10.7 75 -999
2008-02-27 10:39:19 51°18.89 2°45.658 73.8 10.9 80 19.6
2008-02-27 10:40:20 51°18.926 2°45.949 75.2 10.9 75 20.4
2008-02-27 10:41:19 51°18.961 2°46.227 71.2 10.5 73 20.9
2008-02-27 10:42:20 51°18.996 2°46.515 72.7 10.9 82 20.8
2008-02-27 10:43:19 51°19.031 2°46.791 73 10.7 74 20.9
2008-02-27 10:44:19 51°19.067 2°47.068 71.9 10.6 77 20.5
2008-02-27 10:45:19 51°19.101 2°47.348 75.5 10.8 79 20
2008-02-27 10:46:19 51°19.13 2°47.632 75.9 10.5 78 19.3
2008-02-27 10:47:20 51°19.167 2°47.924 72.9 11 76 18.4
2008-02-27 10:48:20 51°19.201 2°48.212 78.4 11.1 78 17.8
2008-02-27 10:49:20 51°19.24 2°48.5 76.3 11 83 16.7
2008-02-27 10:50:19 51°19.253 2°48.786 95.6 11.6 108 15.3
2008-02-27 10:51:19 51°19.209 2°49.081 95.1 11.3 100 12.3
2008-02-27 10:52:19 51°19.156 2°49.375 102.7 11.6 107 12.8
2008-02-27 10:53:20 51°19.109 2°49.674 100.2 11.6 107 11.4
2008-02-27 10:54:19 51°19.073 2°49.966 94.2 11.2 103 11.4
2008-02-27 10:55:20 51°19.04 2°50.265 95.7 11.6 100 12.7
2008-02-27 10:56:20 51°19.044 2°50.56 74.1 11.2 74 13.9
2008-02-27 10:57:19 51°19.091 2°50.839 71.3 11 79 14.5
2008-02-27 10:58:20 51°19.135 2°51.129 71.5 10.9 78 15
2008-02-27 10:59:19 51°19.176 2°51.407 73.2 11 79 14.9
2008-02-27 11:00:20 51°19.218 2°51.691 74 10.9 75 15.2
2008-02-27 11:01:19 51°19.258 2°51.968 69.3 10.8 77 15.1
2008-02-27 11:02:20 51°19.302 2°52.257 69.3 11.1 82 14.8
2008-02-27 11:03:19 51°19.343 2°52.532 74.7 11 68 14.4
2008-02-27 11:04:20 51°19.389 2°52.819 71.4 10.8 79 14.1
2008-02-27 11:05:20 51°19.431 2°53.102 76.7 10.8 73 13.5
2008-02-27 11:06:19 51°19.474 2°53.376 74.1 10.6 79 13.2
2008-02-27 11:07:20 51°19.515 2°53.66 75.4 11 78 12.8
2008-02-27 11:08:19 51°19.555 2°53.936 70.3 10.7 77 12.5
2008-02-27 11:09:20 51°19.598 2°54.216 71.6 10.7 79 12.3
2008-02-27 11:10:19 51°19.635 2°54.496 78.4 10.9 80 12.2
2008-02-27 11:11:19 51°19.673 2°54.777 71.6 10.7 71 12.1
2008-02-27 11:12:21 51°19.71 2°55.065 77.8 10.6 82 12.2
2008-02-27 11:13:20 51°19.751 2°55.337 72.5 11 81 11.9
2008-02-27 11:14:20 51°19.788 2°55.614 69.8 10.7 74 11.9
2008-02-27 11:15:20 51°19.826 2°55.891 73 10.7 71 11.9
2008-02-27 11:16:20 51°19.864 2°56.168 69.9 10.9 83 11.7
2008-02-27 11:17:20 51°19.904 2°56.445 76.4 10.4 81 11.7
2008-02-27 11:18:20 51°19.947 2°56.724 71.2 11.1 76 11.5
2008-02-27 11:19:21 51°19.988 2°57.009 73.1 10.9 83 11.4
2008-02-27 11:20:20 51°20.023 2°57.282 75.8 10.6 82 11.4
2008-02-27 11:21:20 51°20.067 2°57.562 66.9 10.8 66 11.2
2008-02-27 11:22:20 51°20.107 2°57.841 73.5 10.6 76 11.2
2008-02-27 11:23:20 51°20.15 2°58.121 75 10.9 83 10.8
2008-02-27 11:24:19 51°20.194 2°58.394 76.1 10.9 79 10.7
2008-02-27 11:25:20 51°20.233 2°58.676 73.9 11 81 10.6
2008-02-27 11:26:20 51°20.272 2°58.954 74.6 10.8 78 10.5
2008-02-27 11:27:20 51°20.312 2°59.238 73.1 10.9 71 10.2
2008-02-27 11:28:21 51°20.356 2°59.522 71.2 10.8 77 10.3
2008-02-27 11:29:20 51°20.399 2°59.8 73.1 10.9 74 10.1
2008-02-27 11:30:20 51°20.444 3°0.082 74 11.2 78 10.1
2008-02-27 11:31:20 51°20.49 3°0.364 73.9 11 72 10.4
2008-02-27 11:32:20 51°20.536 3°0.642 73.9 11 64 10.2
2008-02-27 11:33:20 51°20.581 3°0.919 71.3 11 72 10.2
2008-02-27 11:34:20 51°20.626 3°1.199 74 10.9 79 10.3
2008-02-27 11:35:20 51°20.672 3°1.48 73.1 10.8 79 10.1
2008-02-27 11:36:19 51°20.719 3°1.753 71.8 10.7 73 10.2
2008-02-27 11:37:19 51°20.766 3°2.033 74.6 11.1 73 10
2008-02-27 11:38:19 51°20.814 3°2.316 73.4 11.2 76 10.1
2008-02-27 11:39:19 51°20.858 3°2.601 74.2 11.1 71 10
2008-02-27 11:40:19 51°20.909 3°2.883 69.5 11 72 10.1
2008-02-27 11:41:20 51°20.952 3°3.167 74 10.9 87 9.9
2008-02-27 11:42:19 51°20.997 3°3.442 71.2 10.8 71 10
2008-02-27 11:43:19 51°21.046 3°3.722 71.2 10.8 70 10
2008-02-27 11:44:20 51°21.088 3°4.009 76.9 11 80 10
2008-02-27 11:45:19 51°21.136 3°4.286 71.9 10.8 76 10
2008-02-27 11:46:19 51°21.188 3°4.566 71.7 11.1 68 10
2008-02-27 11:47:19 51°21.247 3°4.843 70.3 10.8 72 10.1
2008-02-27 11:48:20 51°21.311 3°5.12 67.1 10.7 66 10.2
2008-02-27 11:49:19 51°21.378 3°5.382 68.1 10.9 72 10.2
2008-02-27 11:50:20 51°21.451 3°5.656 67.8 11.1 68 10.4
2008-02-27 11:51:20 51°21.526 3°5.925 68 11.1 63 10.4
2008-02-27 11:52:20 51°21.596 3°6.196 66 11 69 10.5
2008-02-27 11:53:21 51°21.668 3°6.471 68.8 11 66 11.1
2008-02-27 11:54:19 51°21.738 3°6.734 68.2 11.1 70 11.2
2008-02-27 11:55:21 51°21.81 3°7.017 67 11.1 72 11.3
2008-02-27 11:56:20 51°21.799 3°7.3 110.6 10.8 123 11.6
2008-02-27 11:57:20 51°21.619 3°7.432 166.8 12.6 172 10.7
2008-02-27 11:58:20 51°21.409 3°7.363 198 13.5 203 9.4
2008-02-27 11:59:20 51°21.221 3°7.324 166 8.3 171 9
2008-02-27 12:00:21 51°21.132 3°7.37 143.1 4.3 163 8.4
2008-02-27 12:01:20 51°21.07 3°7.368 186.4 3.5 197 8.2
2008-02-27 12:02:20 51°21.014 3°7.296 231.4 4.4 230 8.1
2008-02-27 12:03:20 51°20.973 3°7.205 245.3 3.9 234 7.8
2008-02-27 12:04:20 51°20.95 3°7.116 272.2 3.2 259 8.1
2008-02-27 12:05:20 51°20.941 3°7.042 280.1 2.5 256 8.1
2008-02-27 12:06:20 51°20.932 3°6.984 281.5 2 250 8
2008-02-27 12:07:20 51°20.919 3°6.921 274.3 3.8 259 8.1
2008-02-27 12:08:20 51°20.919 3°6.801 292.2 4.7 282 8
2008-02-27 12:09:20 51°20.94 3°6.725 321.4 2.3 294 7.9
2008-02-27 12:10:20 51°20.962 3°6.653 310.5 3.6 296 8.5
2008-02-27 12:11:20 51°20.991 3°6.565 313.6 3.7 300 8.3
2008-02-27 12:12:20 51°21.013 3°6.494 312.7 2.6 290 8.6
2008-02-27 12:13:20 51°21.027 3°6.434 313.9 2.2 295 8.7
2008-02-27 12:14:20 51°21.041 3°6.376 311.8 2.3 294 8.8
2008-02-27 12:15:20 51°21.061 3°6.305 311.9 3.3 295 9.1
2008-02-27 12:16:20 51°21.088 3°6.223 311.9 3.5 296 9.4
2008-02-27 12:17:20 51°21.112 3°6.14 311.3 2.9 293 9
2008-02-27 12:18:20 51°21.131 3°6.073 315.1 2.9 294 9.7
2008-02-27 12:19:20 51°21.154 3°5.992 311.1 3.7 297 9.6
2008-02-27 12:20:20 51°21.181 3°5.904 312.4 3.7 297 10.2
2008-02-27 12:21:20 51°21.206 3°5.822 312.9 3.1 296 9.9
2008-02-27 12:22:20 51°21.228 3°5.746 312.3 3 294 9.9
2008-02-27 12:23:20 51°21.249 3°5.671 311.7 2.9 290 10.2
2008-02-27 12:24:20 51°21.265 3°5.605 312.6 2.7 295 10.2
2008-02-27 12:25:20 51°21.283 3°5.535 312.5 3 294 10.7
2008-02-27 12:26:20 51°21.302 3°5.464 312.1 2.9 292 10.3
2008-02-27 12:27:20 51°21.322 3°5.39 311.7 2.9 295 10.4
2008-02-27 12:28:20 51°21.343 3°5.316 312.7 3 295 10.6
2008-02-27 12:29:20 51°21.366 3°5.241 312.2 2.8 293 10.3
2008-02-27 12:30:20 51°21.386 3°5.17 312.7 3 297 10.8
2008-02-27 12:31:20 51°21.408 3°5.096 315.6 3.1 298 10.9
2008-02-27 12:32:20 51°21.431 3°5.037 331.3 2.1 301 10.8
2008-02-27 12:33:20 51°21.466 3°4.979 334.1 3.6 318 11.2
2008-02-27 12:34:20 51°21.515 3°4.925 341.8 3.4 326 11.2
2008-02-27 12:35:20 51°21.551 3°4.881 339.8 2.5 317 11.6
2008-02-27 12:36:20 51°21.582 3°4.838 340 2.3 317 11.4
2008-02-27 12:37:20 51°21.616 3°4.81 13 2.3 3 12
2008-02-27 12:38:20 51°21.632 3°4.844 77 2 102 11.8
2008-02-27 12:39:20 51°21.618 3°4.875 103.5 1.3 150 11.8
2008-02-27 12:40:20 51°21.6 3°4.889 111 0.9 147 11.7
2008-02-27 12:41:20 51°21.582 3°4.895 115.3 1 161 11.5
2008-02-27 12:42:20 51°21.563 3°4.898 119.4 1.1 177 11.6
2008-02-27 12:43:20 51°21.548 3°4.923 82.1 1.7 96 11.6
2008-02-27 12:44:20 51°21.575 3°4.951 12.8 2.9 355 11.4
2008-02-27 12:45:20 51°21.658 3°4.952 8.5 5.4 2 12.1
2008-02-27 12:46:20 51°21.741 3°4.956 8.7 4.7 3 12.3
2008-02-27 12:47:20 51°21.819 3°4.96 8.3 4.6 3 12.1
2008-02-27 12:48:20 51°21.896 3°4.964 9.6 4.7 1 12.3
2008-02-27 12:49:20 51°21.995 3°4.968 4.9 7 358 12.4
2008-02-27 12:50:20 51°22.124 3°4.964 5 8.8 -999 12.5
2008-02-27 12:51:20 51°22.286 3°4.965 5.5 10.2 -999 12.8
2008-02-27 12:52:20 51°22.461 3°4.972 5.1 10.4 2 12.4
2008-02-27 12:53:20 51°22.632 3°4.977 5.8 10.1 2 12.4
2008-02-27 12:54:20 51°22.798 3°4.983 5.1 9.4 1 11.7
2008-02-27 12:55:20 51°22.948 3°4.992 5.7 8.8 3 12.3
2008-02-27 12:56:20 51°23.096 3°5.002 5.4 9.3 2 13.6
2008-02-27 12:57:20 51°23.273 3°5.017 5.5 11.6 3 13.1
2008-02-27 12:58:20 51°23.467 3°5.036 5.6 11.9 6 13.2
2008-02-27 12:59:20 51°23.661 3°5.056 5 11.9 2 13.7
2008-02-27 13:00:20 51°23.858 3°5.079 4.9 12 4 14.8
2008-02-27 13:01:20 51°24.059 3°5.098 5.2 12.2 2 19.6
2008-02-27 13:02:20 51°24.26 3°5.114 5.1 11.9 2 20.2
2008-02-27 13:03:20 51°24.456 3°5.131 4.9 11.8 6 14.9
2008-02-27 13:04:20 51°24.651 3°5.141 2.3 11.6 3 13.3
2008-02-27 13:05:20 51°24.842 3°5.142 2.8 11.6 2 14.1
2008-02-27 13:06:20 51°25.034 3°5.146 3.8 11.4 2 13.2
2008-02-27 13:07:20 51°25.224 3°5.151 3.3 11.5 2 13.2
2008-02-27 13:08:20 51°25.415 3°5.155 3.2 11.6 3 12.3
2008-02-27 13:09:20 51°25.603 3°5.159 3.6 11.2 -999 11.7
2008-02-27 13:10:20 51°25.791 3°5.167 3.8 11.4 5 11.7
2008-02-27 13:11:20 51°25.978 3°5.168 3 11.2 1 11.8
2008-02-27 13:12:20 51°26.165 3°5.17 3.5 11.3 1 11.9
2008-02-27 13:13:20 51°26.353 3°5.17 2.4 11.3 357 12.2
2008-02-27 13:14:20 51°26.539 3°5.171 3.9 11.2 -999 12.4
2008-02-27 13:15:20 51°26.725 3°5.17 2.7 11 1 13
2008-02-27 13:16:19 51°26.91 3°5.17 2.7 11.4 359 13.9
2008-02-27 13:17:20 51°27.101 3°5.172 2.8 11.4 1 14.4
2008-02-27 13:18:20 51°27.29 3°5.172 3.5 11.5 358 15.2
2008-02-27 13:19:19 51°27.477 3°5.173 3.7 11.4 -999 15.3
2008-02-27 13:20:20 51°27.671 3°5.17 3.2 11.4 -999 15.4
2008-02-27 13:21:20 51°27.851 3°5.111 338.3 11.4 326 14.1
2008-02-27 13:22:19 51°28.007 3°4.94 334.4 11.6 328 15.4
2008-02-27 13:23:20 51°28.174 3°4.775 335.1 11.8 329 17.4
2008-02-27 13:24:20 51°28.34 3°4.614 334.9 11.8 330 19.9
2008-02-27 13:25:19 51°28.507 3°4.455 335.5 11.7 329 21.2
2008-02-27 13:26:20 51°28.679 3°4.296 336 11.9 328 23.1
2008-02-27 13:27:20 51°28.851 3°4.135 336.5 11.9 332 24.3
2008-02-27 13:28:19 51°29.02 3°3.978 335.6 11.9 329 24.3
2008-02-27 13:29:20 51°29.195 3°3.818 336 11.8 331 24.2
2008-02-27 13:30:20 51°29.367 3°3.657 336 11.9 330 24.2
2008-02-27 13:31:19 51°29.533 3°3.499 336 11.7 330 23.2
2008-02-27 13:32:20 51°29.706 3°3.337 336.2 11.8 329 23.9
2008-02-27 13:33:20 51°29.873 3°3.174 336.2 11.9 327 26.2
2008-02-27 13:34:19 51°30.039 3°3.014 336.3 12 328 27.7
2008-02-27 13:35:20 51°30.216 3°2.865 343.4 11.6 342 26.5
2008-02-27 13:36:20 51°30.404 3°2.785 351.5 11.8 349 28
2008-02-27 13:37:19 51°30.587 3°2.712 352.6 11.5 346 28.9
2008-02-27 13:38:20 51°30.778 3°2.63 351.8 11.6 343 29.3
2008-02-27 13:39:20 51°30.967 3°2.55 350.7 11.9 342 29.3
2008-02-27 13:40:19 51°31.155 3°2.475 351 11.7 344 28.8
2008-02-27 13:41:20 51°31.349 3°2.396 350.7 11.9 345 29.3
2008-02-27 13:42:20 51°31.54 3°2.324 351.2 11.8 348 28.3
2008-02-27 13:43:19 51°31.729 3°2.255 351.8 12 349 29.1
2008-02-27 13:44:20 51°31.922 3°2.187 350.6 11.9 346 28.2
2008-02-27 13:45:20 51°32.117 3°2.114 349.6 11.9 345 27.1
2008-02-27 13:46:19 51°32.307 3°2.057 354.6 11.8 350 26.8
2008-02-27 13:47:20 51°32.503 3°2.008 355.1 11.8 352 23.1
2008-02-27 13:48:20 51°32.695 3°1.955 356.1 11.8 347 22.6
2008-02-27 13:49:20 51°32.886 3°1.903 355.9 11.4 352 25.2
2008-02-27 13:50:20 51°33.074 3°1.851 355 11.5 353 27.5
2008-02-27 13:51:20 51°33.263 3°1.797 354.4 11.4 354 31.3
2008-02-27 13:52:19 51°33.448 3°1.744 355.2 11.5 350 35.4
2008-02-27 13:53:20 51°33.642 3°1.691 353.6 11.6 349 35.8
2008-02-27 13:54:20 51°33.829 3°1.628 346.7 11.5 339 35.3
2008-02-27 13:55:19 51°34.003 3°1.517 339.6 11.4 334 25.5
2008-02-27 13:56:20 51°34.173 3°1.373 333.2 11.3 327 18.9
2008-02-27 13:57:20 51°34.324 3°1.199 327.8 11.1 321 17.5
2008-02-27 13:58:19 51°34.466 3°1.017 327 11.1 321 15.1
2008-02-27 13:59:20 51°34.602 3°0.809 319.5 10.9 315 18.9
2008-02-27 14:00:20 51°34.722 3°0.565 312.3 11.8 306 20.9
2008-02-27 14:01:20 51°34.806 3°0.281 292.8 12.1 287 23.8
2008-02-27 14:02:20 51°34.861 2°59.967 290.5 12.4 285 28.5
2008-02-27 14:03:20 51°34.916 2°59.653 290.8 11.6 287 29.7
2008-02-27 14:04:20 51°34.941 2°59.336 276.7 12.3 272 30
2008-02-27 14:05:20 51°34.894 2°59.01 251.5 12.9 249 30.9
2008-02-27 14:06:20 51°34.8 2°58.702 240.7 13.1 238 30.8
2008-02-27 14:07:20 51°34.674 2°58.421 236.7 12.7 236 26.5
2008-02-27 14:08:20 51°34.548 2°58.142 237.3 12.6 234 29.9
2008-02-27 14:09:20 51°34.425 2°57.869 235.8 12.8 231 28.2
2008-02-27 14:10:20 51°34.286 2°57.609 229.3 12.9 228 30.3
2008-02-27 14:11:19 51°34.141 2°57.36 229.8 12.8 229 29.5
2008-02-27 14:12:20 51°33.992 2°57.103 228.9 13 229 30.8
2008-02-27 14:13:20 51°33.826 2°56.887 213.9 13 210 29.8
2008-02-27 14:14:19 51°33.625 2°56.777 193.2 13.2 193 29.8
2008-02-27 14:15:20 51°33.406 2°56.72 187.2 13.4 190 28
2008-02-27 14:16:20 51°33.19 2°56.666 185.3 13.4 187 26.2
2008-02-27 14:17:19 51°32.98 2°56.593 189.9 13.4 189 26.6
2008-02-27 14:18:20 51°32.764 2°56.512 193.1 13 194 24.7
2008-02-27 14:19:20 51°32.552 2°56.43 196.4 13 194 23.6
2008-02-27 14:20:19 51°32.343 2°56.349 194.6 13.6 198 23.3
2008-02-27 14:21:20 51°32.125 2°56.294 185.8 12.5 182 20.4
2008-02-27 14:22:20 51°31.907 2°56.29 179.9 13.1 180 20.4
2008-02-27 14:23:19 51°31.693 2°56.267 185.8 13.1 183 19.6
2008-02-27 14:24:20 51°31.473 2°56.242 184.4 13.1 187 19
2008-02-27 14:25:20 51°31.258 2°56.215 185.5 12.7 181 27.1
2008-02-27 14:26:19 51°31.048 2°56.187 184.2 12.6 186 36.3
2008-02-27 14:27:20 51°30.834 2°56.157 183.9 13 184 36.8
2008-02-27 14:28:20 51°30.625 2°56.124 183.3 12.5 185 34.2
2008-02-27 14:29:19 51°30.42 2°56.087 186.9 12.6 186 33.3
2008-02-27 14:30:20 51°30.206 2°56.05 185 13 185 32.3
2008-02-27 14:31:20 51°29.996 2°56.02 183.6 13.1 186 31.3
2008-02-27 14:32:19 51°29.787 2°55.981 187.2 12.7 186 30.1
2008-02-27 14:33:20 51°29.57 2°55.944 188.7 12.8 191 29
2008-02-27 14:34:20 51°29.361 2°55.906 184.1 13.1 185 28
2008-02-27 14:35:19 51°29.159 2°55.859 186.1 13 186 26.2
2008-02-27 14:36:20 51°28.945 2°55.821 184.4 12.6 181 25.1
2008-02-27 14:37:20 51°28.735 2°55.78 186.2 12.3 188 25.1
2008-02-27 14:38:19 51°28.529 2°55.736 186.8 12.7 189 25
2008-02-27 14:39:20 51°28.317 2°55.692 184 12.6 189 28.3
2008-02-27 14:40:20 51°28.112 2°55.65 184.3 12.5 187 29.6
2008-02-27 14:41:19 51°27.911 2°55.61 185.7 12.8 188 29.6
2008-02-27 14:42:20 51°27.702 2°55.571 184.5 12.3 185 31
2008-02-27 14:43:20 51°27.501 2°55.522 186 12.3 186 30.5
2008-02-27 14:44:19 51°27.302 2°55.458 189.1 12 190 29.6
2008-02-27 14:45:20 51°27.099 2°55.392 192.8 12.4 194 30.6
2008-02-27 14:46:20 51°26.898 2°55.336 187.6 12.5 188 29.4
2008-02-27 14:47:19 51°26.699 2°55.279 187.9 12.7 192 27.1
2008-02-27 14:48:20 51°26.493 2°55.224 188.8 12.1 191 27.3
2008-02-27 14:49:20 51°26.291 2°55.17 187.7 12.2 192 27
2008-02-27 14:50:19 51°26.091 2°55.117 189 12.3 187 25
2008-02-27 14:51:21 51°25.88 2°55.067 186.3 12.3 188 23.6
2008-02-27 14:52:20 51°25.68 2°55.017 189.4 12.6 189 22.6
2008-02-27 14:53:19 51°25.479 2°54.969 187.6 12.6 187 21.9
2008-02-27 14:54:20 51°25.27 2°54.916 189 12.7 190 21.8
2008-02-27 14:55:20 51°25.062 2°54.866 188.6 12.9 185 21.7
2008-02-27 14:56:19 51°24.859 2°54.821 189.5 12.2 188 20.1
2008-02-27 14:57:20 51°24.65 2°54.775 188.7 12.5 186 23
2008-02-27 14:58:20 51°24.445 2°54.729 188.4 12.2 185 24.2
2008-02-27 14:59:19 51°24.247 2°54.691 186 12 187 24.3
2008-02-27 15:00:21 51°24.043 2°54.651 187.3 11.7 188 23.8
2008-02-27 15:01:20 51°23.848 2°54.614 189 12.2 185 22.9
2008-02-27 15:02:19 51°23.654 2°54.579 187.3 11.8 190 23.1
2008-02-27 15:03:20 51°23.455 2°54.54 189.4 11.5 189 21.2
2008-02-27 15:04:20 51°23.257 2°54.51 185.7 11.9 185 19.9
2008-02-27 15:05:19 51°23.066 2°54.457 194.5 11.9 190 23.2
2008-02-27 15:06:20 51°22.867 2°54.393 193.7 12 189 23.8
2008-02-27 15:07:20 51°22.672 2°54.333 193.7 12 188 24.6
2008-02-27 15:08:19 51°22.481 2°54.273 193.5 11.8 194 23.2
2008-02-27 15:09:21 51°22.281 2°54.21 194.4 11.6 194 22
2008-02-27 15:10:20 51°22.092 2°54.149 193.4 12.1 192 21.5
2008-02-27 15:11:19 51°21.903 2°54.085 193.7 12 195 20.3
2008-02-27 15:12:20 51°21.706 2°54.019 193.5 11.8 193 19.6
2008-02-27 15:13:20 51°21.513 2°53.955 193.8 11.8 192 19.6
2008-02-27 15:14:19 51°21.326 2°53.887 192.4 11.6 193 19.6
2008-02-27 15:15:20 51°21.132 2°53.817 195.1 11.7 194 19.7
2008-02-27 15:16:20 51°20.943 2°53.748 193.5 11.5 194 19.4
2008-02-27 15:17:19 51°20.757 2°53.682 194.6 11.5 193 19.3
2008-02-27 15:18:21 51°20.562 2°53.608 194.6 11.3 194 18.8
2008-02-27 15:19:20 51°20.376 2°53.543 192.4 11.6 190 19
2008-02-27 15:20:19 51°20.19 2°53.474 192.4 12 192 18.7
2008-02-27 15:21:20 51°19.994 2°53.41 188.8 12.2 190 18.3
2008-02-27 15:22:20 51°19.804 2°53.336 195.3 12 197 17.5
2008-02-27 15:23:19 51°19.618 2°53.261 196.3 11.6 194 17.1
2008-02-27 15:24:20 51°19.426 2°53.182 196.3 11.7 193 16.2
2008-02-27 15:25:20 51°19.235 2°53.107 195.4 11.9 193 15.6
2008-02-27 15:26:19 51°19.047 2°53.033 196.6 11.4 194 15.2
2008-02-27 15:27:21 51°18.851 2°52.959 194.2 12 195 14.6
2008-02-27 15:28:20 51°18.664 2°52.887 196.4 11.9 194 14.4
2008-02-27 15:29:19 51°18.477 2°52.817 196.9 11.7 193 14
2008-02-27 15:30:21 51°18.283 2°52.746 193.9 11.7 194 14
2008-02-27 15:31:20 51°18.098 2°52.679 194.7 11.5 195 13.6
2008-02-27 15:32:19 51°17.915 2°52.615 194.7 11.5 191 13.3
2008-02-27 15:33:20 51°17.726 2°52.548 195.6 11.6 190 13.1
2008-02-27 15:34:20 51°17.542 2°52.484 199.5 10.8 196 13.4
2008-02-27 15:35:20 51°17.356 2°52.438 188.8 11.5 184 13.3
2008-02-27 15:36:20 51°17.163 2°52.443 179.2 11.8 175 12.9
2008-02-27 15:37:20 51°16.969 2°52.502 169.6 12.2 165 12.5
2008-02-27 15:38:20 51°16.782 2°52.623 161.6 12 156 12.9
2008-02-27 15:39:21 51°16.589 2°52.743 166.8 12.5 159 14.3
2008-02-27 15:40:20 51°16.406 2°52.878 159.8 12.4 153 14.7
2008-02-27 15:41:19 51°16.221 2°53.015 160.3 12.2 153 14.6
2008-02-27 15:42:20 51°16.03 2°53.156 160.7 12.5 158 14.6
2008-02-27 15:43:20 51°15.843 2°53.294 164 12.3 157 14.2
2008-02-27 15:44:19 51°15.664 2°53.447 157.8 12.3 147 13.9
2008-02-27 15:45:20 51°15.484 2°53.623 156.3 13 148 13.1
2008-02-27 15:46:20 51°15.309 2°53.795 156 12 152 12.9
2008-02-27 15:47:19 51°15.139 2°53.967 154.7 12.2 145 12.3
2008-02-27 15:48:21 51°14.958 2°54.15 153.5 12.4 149 11.7
2008-02-27 15:49:20 51°14.788 2°54.33 147 12.7 140 12.8
2008-02-27 15:50:20 51°14.625 2°54.534 148.3 12.4 140 13.1
2008-02-27 15:51:20 51°14.485 2°54.794 133.9 13.1 125 13.7
2008-02-27 15:52:20 51°14.359 2°55.078 132.5 12.9 133 14.1
2008-02-27 15:53:21 51°14.21 2°55.311 136.4 12.1 138 11.6
2008-02-27 15:54:20 51°14.077 2°55.469 153.7 7.6 156 14.4
2008-02-27 15:55:21 51°13.952 2°55.549 157.9 8.6 158 14.1
2008-02-27 15:56:20 51°13.829 2°55.632 155.5 6.5 155 14
2008-02-27 15:57:21 51°13.755 2°55.71 141.6 4.4 141 13.7
2008-02-27 15:58:20 51°13.709 2°55.787 129.1 3.9 127 14.8
2008-02-27 15:59:21 51°13.68 2°55.878 112.5 3.7 112 11.3
2008-02-27 16:00:24 51°13.665 2°55.947 107.7 1.2 107 10.2